Time;durP1;ratioP1;P1;durP2;ratioP2;P2;SDS_P1;SDS_P2;PMS_P1;PMS_P2;Temp;Humidity;BMP_temperature;BMP_pressure;BME280_temperature;BME280_humidity;BME280_pressure;Samples;Min_cycle;Max_cycle;Signal;HPM_P1;HPM_P2
2023/04/30 07:42:57;;;;;;;;;45.75;37.50;;;;;-145.45;100.00;57426.63;6241379;22;45311;-73
2023/04/30 07:45:23;;;;;;;;;39.25;31.75;;;;;-145.45;100.00;57426.63;6246143;22;45166;-72
2023/04/30 07:47:48;;;;;;;;;29.00;24.00;;;;;-145.45;100.00;57426.63;6246743;22;45556;-73
2023/04/30 07:50:13;;;;;;;;;45.75;37.25;;;;;-145.45;100.00;57426.63;6246320;22;45343;-73
2023/04/30 07:52:40;;;;;;;;;51.25;39.00;;;;;-145.45;100.00;57426.63;6246258;22;45233;-72
2023/04/30 07:55:06;;;;;;;;;44.25;35.00;;;;;-145.45;100.00;57426.63;6218622;22;45267;-72
2023/04/30 07:57:31;;;;;;;;;56.50;45.75;;;;;-145.45;100.00;57426.63;6245886;22;45347;-70
2023/04/30 07:59:56;;;;;;;;;47.25;38.00;;;;;-145.45;100.00;57426.63;6246276;22;45252;-71
2023/04/30 08:02:22;;;;;;;;;50.75;39.25;;;;;-145.45;100.00;57426.63;6217125;22;45510;-72
2023/04/30 08:04:47;;;;;;;;;46.75;37.50;;;;;-145.45;100.00;57426.63;6219203;22;45307;-71
2023/04/30 08:07:14;;;;;;;;;46.25;37.75;;;;;-145.45;100.00;57426.63;6217656;22;45711;-72
2023/04/30 08:09:40;;;;;;;;;44.50;38.00;;;;;-145.45;100.00;57426.63;6219487;22;45264;-72
2023/04/30 08:12:05;;;;;;;;;62.00;51.00;;;;;-145.45;100.00;57426.63;6245515;22;45248;-72
2023/04/30 08:14:31;;;;;;;;;51.25;40.00;;;;;-145.45;100.00;57426.63;6246318;22;45204;-72
2023/04/30 08:16:58;;;;;;;;;47.75;37.75;;;;;-145.45;100.00;57426.63;6218805;22;45267;-71
2023/04/30 08:19:23;;;;;;;;;48.00;40.25;;;;;-145.45;100.00;57426.63;6246227;22;45408;-72
2023/04/30 08:21:49;;;;;;;;;43.75;37.50;;;;;-145.45;100.00;57426.63;6246214;22;45644;-72
2023/04/30 08:24:14;;;;;;;;;45.75;36.75;;;;;-145.45;100.00;57426.63;6219096;22;45367;-71
2023/04/30 08:26:40;;;;;;;;;42.75;32.75;;;;;-145.45;100.00;57426.63;6216801;22;46738;-71
2023/04/30 08:29:07;;;;;;;;;42.67;34.67;;;;;-145.45;100.00;57426.63;6246318;22;45348;-72
2023/04/30 08:31:33;;;;;;;;;37.67;33.00;;;;;-145.45;100.00;57426.63;6246020;22;45260;-71
2023/04/30 08:33:58;;;;;;;;;42.67;31.67;;;;;-145.45;100.00;57426.63;6218644;22;45218;-72
2023/04/30 08:36:24;;;;;;;;;40.00;34.33;;;;;-145.45;100.00;57426.63;6245984;22;45201;-72
2023/04/30 08:38:49;;;;;;;;;44.00;35.00;;;;;-145.45;100.00;57426.63;6218053;22;45673;-72
2023/04/30 08:41:15;;;;;;;;;41.00;34.33;;;;;-145.45;100.00;57426.63;6245319;22;45237;-72
2023/04/30 08:43:41;;;;;;;;;32.33;29.67;;;;;-145.45;100.00;57426.63;6218303;22;45194;-72
2023/04/30 08:46:07;;;;;;;;;43.67;34.00;;;;;-145.45;100.00;57426.63;6245784;22;45189;-72
2023/04/30 08:48:33;;;;;;;;;43.33;35.00;;;;;-145.45;100.00;57426.63;6245675;22;46264;-72
2023/04/30 08:51:02;;;;;;;;;35.33;31.33;;;;;-145.45;100.00;57426.63;6218385;22;45301;-72
2023/04/30 08:53:34;;;;;;;;;33.67;31.00;;;;;-145.45;100.00;57426.63;6246315;22;45244;-72
2023/04/30 08:55:59;;;;;;;;;39.67;34.00;;;;;-145.45;100.00;57426.63;6218052;22;46088;-72
2023/04/30 08:58:25;;;;;;;;;41.33;34.67;;;;;-145.45;100.00;57426.63;6245400;22;46366;-72
2023/04/30 09:00:50;;;;;;;;;36.67;31.33;;;;;-145.45;100.00;57426.63;6246142;22;45296;-72
2023/04/30 09:03:15;;;;;;;;;47.00;36.67;;;;;-145.45;100.00;57426.63;6218832;22;45293;-72
2023/04/30 09:05:41;;;;;;;;;32.00;30.67;;;;;-145.45;100.00;57426.63;6245815;22;45396;-72
2023/04/30 09:08:07;;;;;;;;;35.67;30.00;;;;;-145.45;100.00;57426.63;6246064;22;45564;-72
2023/04/30 09:10:34;;;;;;;;;34.00;30.00;;;;;-145.45;100.00;57426.63;6245808;22;45329;-72
2023/04/30 09:13:01;;;;;;;;;37.00;32.33;;;;;-145.45;100.00;57426.63;6245715;22;45253;-73
2023/04/30 09:15:28;;;;;;;;;38.00;32.00;;;;;-145.45;100.00;57426.63;6217944;22;45628;-73
2023/04/30 09:18:09;;;;;;;;;40.00;30.67;;;;;-145.45;100.00;57426.63;6245296;22;45425;-72
2023/04/30 09:20:34;;;;;;;;;35.00;28.33;;;;;-145.45;100.00;57426.63;6218386;22;45224;-73
2023/04/30 09:23:08;;;;;;;;;27.33;26.67;;;;;-145.45;100.00;57426.63;6218589;22;45430;-72
2023/04/30 09:25:41;;;;;;;;;39.33;32.67;;;;;-145.45;100.00;57426.63;6245357;22;47106;-73
2023/04/30 09:28:09;;;;;;;;;32.33;31.33;;;;;-145.45;100.00;57426.63;6217416;22;46720;-73
2023/04/30 09:30:35;;;;;;;;;32.67;28.33;;;;;-145.45;100.00;57426.63;6244844;22;45165;-73
2023/04/30 09:33:01;;;;;;;;;31.00;29.67;;;;;-145.45;100.00;57426.63;6218422;22;45395;-73
2023/04/30 09:35:32;;;;;;;;;35.00;31.00;;;;;-145.45;100.00;57426.63;6217357;22;46570;-73
2023/04/30 09:38:00;;;;;;;;;26.67;26.67;;;;;-145.45;100.00;57426.63;6245661;22;46804;-73
2023/04/30 09:40:39;;;;;;;;;36.33;29.67;;;;;-145.45;100.00;57426.63;6217244;22;45269;-73
2023/04/30 09:43:05;;;;;;;;;24.00;22.00;;;;;-145.45;100.00;57426.63;6218248;22;45380;-74
2023/04/30 09:45:48;;;;;;;;;28.00;25.33;;;;;-145.45;100.00;57426.63;6218075;22;46767;-73
2023/04/30 09:48:20;;;;;;;;;26.00;26.00;;;;;-145.45;100.00;57426.63;6245774;22;45632;-73
2023/04/30 09:50:46;;;;;;;;;27.33;25.00;;;;;-145.45;100.00;57426.63;6245197;22;45257;-73
2023/04/30 09:53:16;;;;;;;;;25.67;25.00;;;;;-145.45;100.00;57426.63;6246081;22;45166;-73
2023/04/30 09:55:44;;;;;;;;;30.67;24.33;;;;;-145.45;100.00;57426.63;6244940;22;45256;-73
2023/04/30 09:58:10;;;;;;;;;29.00;25.00;;;;;-145.45;100.00;57426.63;6245672;22;45318;-73
2023/04/30 10:00:36;;;;;;;;;22.67;21.67;;;;;-145.45;100.00;57426.63;6245291;22;45259;-73
2023/04/30 10:03:09;;;;;;;;;28.00;26.00;;;;;-145.45;100.00;57426.63;6218215;22;45245;-73
2023/04/30 10:05:46;;;;;;;;;28.00;26.00;;;;;-145.45;100.00;57426.63;6217392;22;45624;-73
2023/04/30 10:08:27;;;;;;;;;28.00;25.67;;;;;-145.45;100.00;57426.63;6217702;22;47439;-73
2023/04/30 10:11:01;;;;;;;;;26.33;25.00;;;;;-145.45;100.00;57426.63;6216918;22;45287;-72
2023/04/30 10:13:30;;;;;;;;;28.67;24.67;;;;;-145.45;100.00;57426.63;6245742;22;45293;-72
2023/04/30 10:16:00;;;;;;;;;25.33;22.33;;;;;-145.45;100.00;57426.63;6244692;22;45395;-72
2023/04/30 10:18:33;;;;;;;;;23.67;23.67;;;;;-145.45;100.00;57426.63;6245320;22;45451;-73
2023/04/30 10:21:09;;;;;;;;;21.33;19.00;;;;;-145.45;100.00;57426.63;6245177;22;45339;-72
2023/04/30 10:23:36;;;;;;;;;28.00;26.33;;;;;-145.45;100.00;57426.63;6217720;22;45309;-72
2023/04/30 10:26:02;;;;;;;;;24.00;22.00;;;;;-145.45;100.00;57426.63;6217349;22;45470;-72
2023/04/30 10:28:29;;;;;;;;;26.67;24.33;;;;;-145.45;100.00;57426.63;6245299;22;45253;-72
2023/04/30 10:30:55;;;;;;;;;31.33;26.67;;;;;-145.45;100.00;57426.63;6244887;22;45281;-72
2023/04/30 10:34:16;;;;;;;;;19.67;18.00;;;;;-145.45;100.00;57426.63;6245716;22;45225;-72
2023/04/30 10:36:47;;;;;;;;;24.33;20.67;;;;;-145.45;100.00;57426.63;6181718;22;45544;-72
2023/04/30 10:39:17;;;;;;;;;20.50;18.75;;;;;-145.45;100.00;57426.63;6244983;22;45339;-72
2023/04/30 10:41:46;;;;;;;;;25.67;23.00;;;;;-145.45;100.00;57426.63;6217310;22;45360;-71
2023/04/30 10:44:11;;;;;;;;;19.00;19.00;;;;;-145.45;100.00;57426.63;6219014;22;45287;-71
2023/04/30 10:46:37;;;;;;;;;21.67;18.67;;;;;-145.45;100.00;57426.63;6218993;22;45871;-71
2023/04/30 10:49:02;;;;;;;;;18.33;18.33;;;;;-145.45;100.00;57426.63;6246777;22;45441;-71
2023/04/30 10:51:53;;;;;;;;;19.67;18.33;;;;;-145.45;100.00;57426.63;6246274;22;45154;-71
2023/04/30 10:54:24;;;;;;;;;14.00;12.33;;;;;-145.45;100.00;57426.63;6219111;22;45364;-71
2023/04/30 10:56:51;;;;;;;;;18.00;18.00;;;;;-145.45;100.00;57426.63;6246025;22;45170;-71
2023/04/30 10:59:17;;;;;;;;;17.67;16.67;;;;;-145.45;100.00;57426.63;6246247;22;45457;-71
2023/04/30 11:02:00;;;;;;;;;17.33;16.33;;;;;-145.45;100.00;57426.63;6246083;22;45182;-71
2023/04/30 11:04:26;;;;;;;;;17.00;17.00;;;;;-145.45;100.00;57426.63;6218321;22;45295;-71
2023/04/30 11:06:52;;;;;;;;;17.67;16.00;;;;;-145.45;100.00;57426.63;6218531;22;46783;-71
2023/04/30 11:09:38;;;;;;;;;17.00;15.67;;;;;-145.45;100.00;57426.63;6246363;22;45489;-71
2023/04/30 11:12:12;;;;;;;;;13.33;13.33;;;;;-145.45;100.00;57426.63;6245043;22;45330;-71
2023/04/30 11:14:45;;;;;;;;;12.50;11.25;;;;;-145.45;100.00;57426.63;6246841;22;45273;-71
2023/04/30 11:17:12;;;;;;;;;11.50;10.75;;;;;-145.45;100.00;57426.63;6218098;22;47281;-72
2023/04/30 11:19:51;;;;;;;;;14.75;13.75;;;;;-145.45;100.00;57426.63;6246794;22;46146;-71
2023/04/30 11:22:23;;;;;;;;;13.25;12.75;;;;;-145.45;100.00;57426.63;6218075;22;45249;-71
2023/04/30 11:24:50;;;;;;;;;11.25;10.00;;;;;-145.45;100.00;57426.63;6246875;22;45410;-71
2023/04/30 11:27:23;;;;;;;;;21.00;18.00;;;;;-145.45;100.00;57426.63;6218418;22;45456;-72
2023/04/30 11:29:51;;;;;;;;;16.00;12.00;;;;;-145.45;100.00;57426.63;6246244;22;46611;-72
2023/04/30 11:32:18;;;;;;;;;11.50;10.25;;;;;-145.45;100.00;57426.63;6244815;22;45272;-70
2023/04/30 11:34:46;;;;;;;;;12.00;9.75;;;;;-145.45;100.00;57426.63;6218934;22;45138;-71
2023/04/30 11:37:18;;;;;;;;;10.25;10.25;;;;;-145.45;100.00;57426.63;6245939;22;45470;-71
2023/04/30 11:39:45;;;;;;;;;12.75;11.75;;;;;-145.45;100.00;57426.63;6246763;22;45826;-71
2023/04/30 11:42:15;;;;;;;;;10.25;10.25;;;;;-145.45;100.00;57426.63;6245357;22;45261;-70
2023/04/30 11:44:41;;;;;;;;;11.50;11.50;;;;;-145.45;100.00;57426.63;6246864;22;45237;-73
2023/04/30 11:47:06;;;;;;;;;10.00;10.00;;;;;-145.45;100.00;57426.63;6218574;22;46975;-78
2023/04/30 11:49:32;;;;;;;;;8.75;8.75;;;;;-145.45;100.00;57426.63;6246537;22;45512;-76
2023/04/30 11:51:57;;;;;;;;;12.00;10.00;;;;;-145.45;100.00;57426.63;6245996;22;45158;-79
2023/04/30 11:54:23;;;;;;;;;13.00;10.00;;;;;-145.45;100.00;57426.63;6246686;22;45137;-76
2023/04/30 11:56:48;;;;;;;;;12.00;10.00;;;;;-145.45;100.00;57426.63;6245748;22;45514;-71
2023/04/30 11:59:15;;;;;;;;;6.75;6.00;;;;;-145.45;100.00;57426.63;6218567;22;47251;-71
2023/04/30 12:01:42;;;;;;;;;9.00;8.33;;;;;-145.45;100.00;57426.63;6218572;22;45654;-71
2023/04/30 12:04:07;;;;;;;;;11.75;9.00;;;;;-145.45;100.00;57426.63;6246371;22;45285;-70
2023/04/30 12:06:34;;;;;;;;;10.25;9.00;;;;;-145.45;100.00;57426.63;6245807;22;45309;-70
2023/04/30 12:09:03;;;;;;;;;11.00;8.00;;;;;-145.45;100.00;57426.63;6246315;22;45669;-71
2023/04/30 12:11:30;;;;;;;;;16.00;11.50;;;;;-145.45;100.00;57426.63;6245436;22;45265;-71
2023/04/30 12:14:04;;;;;;;;;10.25;10.25;;;;;-145.45;100.00;57426.63;6218799;22;45589;-71
2023/04/30 12:16:50;;;;;;;;;11.00;11.00;;;;;-145.45;100.00;57426.63;6217921;22;46453;-71
2023/04/30 12:19:17;;;;;;;;;62.25;52.00;;;;;-145.45;100.00;57426.63;6245732;22;46368;-71
2023/04/30 12:21:45;;;;;;;;;12.25;12.25;;;;;-145.45;100.00;57426.63;6245917;22;45297;-71
2023/04/30 12:24:15;;;;;;;;;11.00;10.25;;;;;-145.45;100.00;57426.63;6218690;22;45229;-71
2023/04/30 12:26:41;;;;;;;;;12.25;10.75;;;;;-145.45;100.00;57426.63;6217773;22;45316;-71
2023/04/30 12:29:14;;;;;;;;;10.75;10.75;;;;;-145.45;100.00;57426.63;6245923;22;45234;-72
2023/04/30 12:31:40;;;;;;;;;9.00;9.00;;;;;-145.45;100.00;57426.63;6245279;22;45327;-71
2023/04/30 12:34:11;;;;;;;;;13.00;12.00;;;;;-145.45;100.00;57426.63;6246618;22;45269;-74
2023/04/30 12:36:41;;;;;;;;;10.25;9.25;;;;;-145.45;100.00;57426.63;6245856;22;45228;-69
2023/04/30 12:39:10;;;;;;;;;16.00;13.50;;;;;-145.45;100.00;57426.63;6245194;22;46167;-70
2023/04/30 12:41:47;;;;;;;;;32.00;31.00;;;;;-145.45;100.00;57426.63;6245084;22;45342;-70
2023/04/30 12:44:23;;;;;;;;;23.67;23.67;;;;;-145.45;100.00;57426.63;6246074;22;45237;-70
2023/04/30 12:46:52;;;;;;;;;19.00;16.75;;;;;-145.45;100.00;57426.63;6245655;22;45159;-71
2023/04/30 12:49:28;;;;;;;;;10.50;8.75;;;;;-145.45;100.00;57426.63;6245664;22;45344;-70
2023/04/30 12:52:07;;;;;;;;;21.67;20.00;;;;;-145.45;100.00;57426.63;6245662;22;45343;-71
2023/04/30 12:54:33;;;;;;;;;10.00;10.00;;;;;-145.45;100.00;57426.63;6245705;22;45203;-70
2023/04/30 12:57:00;;;;;;;;;11.75;11.00;;;;;-145.45;100.00;57426.63;6245598;22;45298;-70
2023/04/30 12:59:26;;;;;;;;;8.00;7.75;;;;;-145.45;100.00;57426.63;6246048;22;45242;-70
2023/04/30 13:01:53;;;;;;;;;15.00;12.00;;;;;-145.45;100.00;57426.63;6246136;22;45296;-70
2023/04/30 13:04:19;;;;;;;;;11.25;10.75;;;;;-145.45;100.00;57426.63;6245995;22;45256;-70
2023/04/30 13:06:44;;;;;;;;;33.33;28.67;;;;;-145.45;100.00;57426.63;6245966;22;45170;-70
2023/04/30 13:09:11;;;;;;;;;13.25;12.25;;;;;-145.45;100.00;57426.63;6218292;22;47848;-71
2023/04/30 13:11:37;;;;;;;;;10.25;10.25;;;;;-145.45;100.00;57426.63;6217562;22;45222;-71
2023/04/30 13:14:02;;;;;;;;;13.25;11.25;;;;;-145.45;100.00;57426.63;6246244;22;45190;-70
2023/04/30 13:16:29;;;;;;;;;9.50;9.50;;;;;-145.45;100.00;57426.63;6245257;22;45391;-71
2023/04/30 13:18:54;;;;;;;;;10.25;10.25;;;;;-145.45;100.00;57426.63;6246040;22;45284;-71
2023/04/30 13:21:20;;;;;;;;;14.67;12.00;;;;;-145.45;100.00;57426.63;6245258;22;45226;-70
2023/04/30 13:23:45;;;;;;;;;12.50;11.00;;;;;-145.45;100.00;57426.63;6246365;22;45265;-71
2023/04/30 13:26:11;;;;;;;;;11.50;10.00;;;;;-145.45;100.00;57426.63;6245057;22;47064;-71
2023/04/30 13:28:36;;;;;;;;;11.00;10.50;;;;;-145.45;100.00;57426.63;6245689;22;45241;-70
2023/04/30 13:31:02;;;;;;;;;10.75;10.25;;;;;-145.45;100.00;57426.63;6192550;22;45288;-70
2023/04/30 13:33:27;;;;;;;;;12.00;9.25;;;;;-145.45;100.00;57426.63;6246248;22;45257;-70
2023/04/30 13:35:52;;;;;;;;;16.00;11.75;;;;;-145.45;100.00;57426.63;6245709;22;45494;-70
2023/04/30 13:38:17;;;;;;;;;9.00;9.00;;;;;-145.45;100.00;57426.63;6245699;22;46114;-70
2023/04/30 13:40:43;;;;;;;;;9.75;9.75;;;;;-145.45;100.00;57426.63;6244663;22;45300;-71
2023/04/30 13:43:08;;;;;;;;;12.50;12.50;;;;;-145.45;100.00;57426.63;6245714;22;45286;-71
2023/04/30 13:45:33;;;;;;;;;10.75;9.25;;;;;-145.45;100.00;57426.63;6245379;22;45573;-71
2023/04/30 13:47:59;;;;;;;;;11.75;11.50;;;;;-145.45;100.00;57426.63;6217749;22;48302;-70
2023/04/30 13:50:24;;;;;;;;;12.75;11.75;;;;;-145.45;100.00;57426.63;6244876;22;45539;-71
2023/04/30 13:52:49;;;;;;;;;11.75;11.00;;;;;-145.45;100.00;57426.63;6245030;22;45154;-70
2023/04/30 13:55:15;;;;;;;;;10.33;9.00;;;;;-145.45;100.00;57426.63;6215214;22;45575;-70
2023/04/30 13:57:40;;;;;;;;;11.00;11.00;;;;;-145.45;100.00;57426.63;6217201;22;46482;-70
2023/04/30 14:00:07;;;;;;;;;12.75;10.75;;;;;-145.45;100.00;57426.63;6244505;22;45251;-71
2023/04/30 14:02:33;;;;;;;;;11.33;10.33;;;;;-145.45;100.00;57426.63;6216280;22;45349;-70
2023/04/30 14:04:59;;;;;;;;;14.67;11.00;;;;;-145.45;100.00;57426.63;6244597;22;45441;-71
2023/04/30 14:07:24;;;;;;;;;8.00;8.00;;;;;-145.45;100.00;57426.63;6216037;22;46454;-70
2023/04/30 14:09:50;;;;;;;;;10.00;8.25;;;;;-145.45;100.00;57426.63;6244385;22;45304;-70
2023/04/30 14:12:15;;;;;;;;;13.33;11.00;;;;;-145.45;100.00;57426.63;6215624;22;45624;-71
2023/04/30 14:14:41;;;;;;;;;10.00;10.00;;;;;-145.45;100.00;57426.63;6243758;22;45230;-70
2023/04/30 14:17:06;;;;;;;;;8.33;8.33;;;;;-145.45;100.00;57426.63;6242945;22;46262;-70
2023/04/30 14:19:32;;;;;;;;;9.00;9.00;;;;;-145.45;100.00;57426.63;6217451;22;45292;-71
2023/04/30 14:21:57;;;;;;;;;9.50;7.25;;;;;-145.45;100.00;57426.63;6245180;22;45368;-71
2023/04/30 14:24:22;;;;;;;;;10.33;10.33;;;;;-145.45;100.00;57426.63;6245872;22;45218;-71
2023/04/30 14:26:48;;;;;;;;;8.00;8.00;;;;;-145.45;100.00;57426.63;6244692;22;48407;-71
2023/04/30 14:29:13;;;;;;;;;11.33;9.67;;;;;-145.45;100.00;57426.63;6245154;22;52209;-71
2023/04/30 14:31:38;;;;;;;;;8.33;6.67;;;;;-145.45;100.00;57426.63;6245249;22;45314;-71
2023/04/30 14:34:04;;;;;;;;;8.00;8.00;;;;;-145.45;100.00;57426.63;6244602;22;45546;-70
2023/04/30 14:36:29;;;;;;;;;6.00;6.00;;;;;-145.45;100.00;57426.63;6244615;22;45568;-70
2023/04/30 14:38:54;;;;;;;;;7.00;7.00;;;;;-145.45;100.00;57426.63;6244994;22;45236;-70
2023/04/30 14:41:20;;;;;;;;;6.00;6.00;;;;;-145.45;100.00;57426.63;6244191;22;45393;-70
2023/04/30 14:43:46;;;;;;;;;7.67;7.00;;;;;-145.45;100.00;57426.63;6245257;22;45249;-70
2023/04/30 14:46:12;;;;;;;;;6.33;6.33;;;;;-145.45;100.00;57426.63;6217032;22;46802;-70
2023/04/30 14:48:37;;;;;;;;;7.00;7.00;;;;;-145.45;100.00;57426.63;6245463;22;45264;-70
2023/04/30 14:51:03;;;;;;;;;8.67;8.67;;;;;-145.45;100.00;57426.63;6245196;22;45226;-70
2023/04/30 14:53:28;;;;;;;;;6.33;6.33;;;;;-145.45;100.00;57426.63;6218315;22;45265;-70
2023/04/30 14:55:54;;;;;;;;;6.00;6.00;;;;;-145.45;100.00;57426.63;6243223;22;45519;-70
2023/04/30 14:58:19;;;;;;;;;6.00;6.00;;;;;-145.45;100.00;57426.63;6218393;22;45280;-69
2023/04/30 15:00:47;;;;;;;;;9.00;9.00;;;;;-145.45;100.00;57426.63;6245915;22;45260;-70
2023/04/30 15:03:12;;;;;;;;;8.67;6.67;;;;;-145.45;100.00;57426.63;6245492;22;45421;-71
2023/04/30 15:05:37;;;;;;;;;9.00;9.00;;;;;-145.45;100.00;57426.63;6245883;22;45253;-71
2023/04/30 15:08:03;;;;;;;;;9.33;7.67;;;;;-145.45;100.00;57426.63;6245999;22;45300;-70
2023/04/30 15:10:28;;;;;;;;;8.00;8.00;;;;;-145.45;100.00;57426.63;6245907;22;45165;-70
2023/04/30 15:12:54;;;;;;;;;8.67;8.00;;;;;-145.45;100.00;57426.63;6192831;22;46156;-70
2023/04/30 15:15:21;;;;;;;;;6.00;6.00;;;;;-145.45;100.00;57426.63;6245086;22;48854;-70
2023/04/30 15:17:47;;;;;;;;;8.67;8.67;;;;;-145.45;100.00;57426.63;6244705;22;45205;-71
2023/04/30 15:20:12;;;;;;;;;8.33;7.00;;;;;-145.45;100.00;57426.63;6245382;22;45369;-70
2023/04/30 15:22:39;;;;;;;;;9.67;7.00;;;;;-145.45;100.00;57426.63;6244912;22;45293;-70
2023/04/30 15:25:05;;;;;;;;;6.00;5.00;;;;;-145.45;100.00;57426.63;6244793;22;45216;-71
2023/04/30 15:27:30;;;;;;;;;5.00;5.00;;;;;-145.45;100.00;57426.63;6243183;22;45297;-71
2023/04/30 15:29:56;;;;;;;;;7.00;7.00;;;;;-145.45;100.00;57426.63;6217137;22;45255;-70
2023/04/30 15:32:21;;;;;;;;;7.00;7.00;;;;;-145.45;100.00;57426.63;6242332;22;45446;-70
2023/04/30 15:34:47;;;;;;;;;6.00;6.00;;;;;-145.45;100.00;57426.63;6244436;22;45272;-71
2023/04/30 15:37:12;;;;;;;;;7.67;7.00;;;;;-145.45;100.00;57426.63;6244369;22;54110;-70
2023/04/30 15:39:38;;;;;;;;;5.67;5.67;;;;;-145.45;100.00;57426.63;6217190;22;44687;-70
2023/04/30 15:42:03;;;;;;;;;8.33;8.33;;;;;-145.45;100.00;57426.63;6216028;22;45982;-71
2023/04/30 15:44:29;;;;;;;;;8.67;7.33;;;;;-145.45;100.00;57426.63;6217192;22;45258;-70
2023/04/30 15:46:55;;;;;;;;;7.00;6.00;;;;;-145.45;100.00;57426.63;6244878;22;45289;-70
2023/04/30 15:49:22;;;;;;;;;8.00;8.00;;;;;-145.45;100.00;57426.63;6245095;22;45287;-71
2023/04/30 15:51:47;;;;;;;;;8.00;6.00;;;;;-145.45;100.00;57426.63;6245095;22;45289;-70
2023/04/30 15:54:13;;;;;;;;;5.67;5.33;;;;;-145.45;100.00;57426.63;6217560;22;46694;-71
2023/04/30 15:56:39;;;;;;;;;6.67;6.67;;;;;-145.45;100.00;57426.63;6245492;22;45240;-70
2023/04/30 15:59:05;;;;;;;;;9.67;8.33;;;;;-145.45;100.00;57426.63;6218135;22;45435;-70
2023/04/30 16:01:30;;;;;;;;;6.67;6.67;;;;;-145.45;100.00;57426.63;6218509;22;45352;-70
2023/04/30 16:03:56;;;;;;;;;7.33;7.33;;;;;-145.45;100.00;57426.63;6246376;22;45768;-70
2023/04/30 16:06:21;;;;;;;;;6.67;6.67;;;;;-145.45;100.00;57426.63;6246524;22;45240;-71
2023/04/30 16:08:48;;;;;;;;;10.00;6.67;;;;;-145.45;100.00;57426.63;6219068;22;45192;-70
2023/04/30 16:11:14;;;;;;;;;9.00;8.00;;;;;-145.45;100.00;57426.63;6245604;22;45213;-70
2023/04/30 16:13:39;;;;;;;;;5.00;4.67;;;;;-145.45;100.00;57426.63;6246253;22;46049;-70
2023/04/30 16:16:07;;;;;;;;;8.00;8.00;;;;;-145.45;100.00;57426.63;6246375;22;45245;-70
2023/04/30 16:18:32;;;;;;;;;6.67;6.00;;;;;-145.45;100.00;57426.63;6246112;22;45399;-71
2023/04/30 16:20:59;;;;;;;;;4.00;4.00;;;;;-145.45;100.00;57426.63;6246152;22;45211;-70
2023/04/30 16:23:24;;;;;;;;;7.33;7.00;;;;;-145.45;100.00;57426.63;6246316;22;45636;-70
2023/04/30 16:25:49;;;;;;;;;5.67;5.67;;;;;-145.45;100.00;57426.63;6246268;22;45208;-70
2023/04/30 16:28:15;;;;;;;;;5.00;5.00;;;;;-145.45;100.00;57426.63;6246601;22;45281;-70
2023/04/30 16:30:41;;;;;;;;;7.00;6.33;;;;;-145.45;100.00;57426.63;6218414;22;45502;-70
2023/04/30 16:33:06;;;;;;;;;9.33;5.00;;;;;-145.45;100.00;57426.63;6245902;22;45315;-71
2023/04/30 16:35:32;;;;;;;;;8.00;7.00;;;;;-145.45;100.00;57426.63;6246337;22;45319;-70
2023/04/30 16:37:57;;;;;;;;;7.00;6.00;;;;;-145.45;100.00;57426.63;6246360;22;45308;-71
2023/04/30 16:40:23;;;;;;;;;9.67;7.00;;;;;-145.45;100.00;57426.63;6245386;22;45245;-71
2023/04/30 16:42:48;;;;;;;;;6.67;5.67;;;;;-145.45;100.00;57426.63;6245311;22;46218;-71
2023/04/30 16:45:14;;;;;;;;;7.00;7.00;;;;;-145.45;100.00;57426.63;6246305;22;45225;-70
2023/04/30 16:47:39;;;;;;;;;7.00;6.67;;;;;-145.45;100.00;57426.63;6217689;22;45264;-70
2023/04/30 16:50:06;;;;;;;;;6.67;6.67;;;;;-145.45;100.00;57426.63;6246162;22;45307;-71
2023/04/30 16:52:32;;;;;;;;;7.00;6.00;;;;;-145.45;100.00;57426.63;6245624;22;46062;-71
2023/04/30 16:54:57;;;;;;;;;6.67;6.33;;;;;-145.45;100.00;57426.63;6217899;22;45155;-71
2023/04/30 16:57:23;;;;;;;;;2.33;2.33;;;;;-145.45;100.00;57426.63;6245863;22;45197;-71
2023/04/30 16:59:49;;;;;;;;;8.33;7.67;;;;;-145.45;100.00;57426.63;6244669;22;46078;-70
2023/04/30 17:02:14;;;;;;;;;7.00;7.00;;;;;-145.45;100.00;57426.63;6246005;22;45724;-71
2023/04/30 17:04:40;;;;;;;;;8.67;7.67;;;;;-145.45;100.00;57426.63;6246200;22;45398;-70
2023/04/30 17:07:05;;;;;;;;;8.67;6.67;;;;;-145.45;100.00;57426.63;6246070;22;45308;-71
2023/04/30 17:09:31;;;;;;;;;7.67;7.67;;;;;-145.45;100.00;57426.63;6218879;22;45780;-71
2023/04/30 17:11:56;;;;;;;;;9.00;6.67;;;;;-145.45;100.00;57426.63;6245604;22;45397;-70
2023/04/30 17:14:21;;;;;;;;;8.00;7.67;;;;;-145.45;100.00;57426.63;6246493;22;45318;-71
2023/04/30 17:16:47;;;;;;;;;7.00;7.00;;;;;-145.45;100.00;57426.63;6245651;22;45300;-71
2023/04/30 17:19:12;;;;;;;;;10.00;9.33;;;;;-145.45;100.00;57426.63;6218916;22;45280;-70
2023/04/30 17:21:38;;;;;;;;;8.67;6.00;;;;;-145.45;100.00;57426.63;6245699;22;45462;-71
2023/04/30 17:24:04;;;;;;;;;7.67;7.33;;;;;-145.45;100.00;57426.63;6246242;22;45320;-70
2023/04/30 17:26:30;;;;;;;;;8.67;7.67;;;;;-145.45;100.00;57426.63;6243724;22;45245;-70
2023/04/30 17:28:55;;;;;;;;;8.67;8.00;;;;;-145.45;100.00;57426.63;6245647;22;45515;-71
2023/04/30 17:31:21;;;;;;;;;8.67;8.67;;;;;-145.45;100.00;57426.63;6217675;22;45416;-71
2023/04/30 17:33:47;;;;;;;;;8.33;8.33;;;;;-145.45;100.00;57426.63;6246531;22;45272;-71
2023/04/30 17:36:12;;;;;;;;;8.67;7.67;;;;;-145.45;100.00;57426.63;6246193;22;45428;-70
2023/04/30 17:38:38;;;;;;;;;9.33;8.00;;;;;-145.45;100.00;57426.63;6246188;22;45272;-71
2023/04/30 17:41:04;;;;;;;;;11.67;9.00;;;;;-145.45;100.00;57426.63;6245621;22;46203;-69
2023/04/30 17:43:29;;;;;;;;;9.00;8.67;;;;;-145.45;100.00;57426.63;6246406;22;45266;-70
2023/04/30 17:45:56;;;;;;;;;6.67;6.67;;;;;-145.45;100.00;57426.63;6246226;22;45180;-70
2023/04/30 17:48:21;;;;;;;;;10.33;8.00;;;;;-145.45;100.00;57426.63;6246006;22;45372;-70
2023/04/30 17:50:46;;;;;;;;;4.67;4.67;;;;;-145.45;100.00;57426.63;6245888;22;45225;-70
2023/04/30 17:53:12;;;;;;;;;7.67;7.67;;;;;-145.45;100.00;57426.63;6247680;22;45298;-70
2023/04/30 17:55:37;;;;;;;;;7.67;6.67;;;;;-145.45;100.00;57426.63;6247208;22;45158;-70
2023/04/30 17:58:03;;;;;;;;;8.33;8.33;;;;;-145.45;100.00;57426.63;6247497;22;45507;-70
2023/04/30 18:00:29;;;;;;;;;10.67;8.00;;;;;-145.45;100.00;57426.63;6247142;22;50789;-70
2023/04/30 18:02:55;;;;;;;;;9.67;9.67;;;;;-145.45;100.00;57426.63;6247091;22;45407;-70
2023/04/30 18:05:20;;;;;;;;;8.67;8.67;;;;;-145.45;100.00;57426.63;6219429;22;45155;-70
2023/04/30 18:07:46;;;;;;;;;6.00;6.00;;;;;-145.45;100.00;57426.63;6247371;22;45180;-70
2023/04/30 18:10:11;;;;;;;;;7.67;7.33;;;;;-145.45;100.00;57426.63;6219169;22;46536;-70
2023/04/30 18:12:37;;;;;;;;;8.00;6.67;;;;;-145.45;100.00;57426.63;6218315;22;45242;-70
2023/04/30 18:15:04;;;;;;;;;8.00;7.33;;;;;-145.45;100.00;57426.63;6246578;22;45316;-70
2023/04/30 18:17:30;;;;;;;;;7.67;7.67;;;;;-145.45;100.00;57426.63;6245872;22;45115;-71
2023/04/30 18:19:55;;;;;;;;;9.33;7.00;;;;;-145.45;100.00;57426.63;6247427;22;45497;-71
2023/04/30 18:22:21;;;;;;;;;11.67;10.00;;;;;-145.45;100.00;57426.63;6247084;22;47651;-71
2023/04/30 18:24:46;;;;;;;;;10.00;9.67;;;;;-145.45;100.00;57426.63;6247728;22;45146;-71
2023/04/30 18:27:12;;;;;;;;;10.33;9.00;;;;;-145.45;100.00;57426.63;6246773;22;45253;-71
2023/04/30 18:29:37;;;;;;;;;10.00;9.00;;;;;-145.45;100.00;57426.63;6246747;22;46552;-70
2023/04/30 18:32:02;;;;;;;;;9.33;9.00;;;;;-145.45;100.00;57426.63;6247117;22;45257;-71
2023/04/30 18:34:28;;;;;;;;;7.00;7.00;;;;;-145.45;100.00;57426.63;6219604;22;45295;-72
2023/04/30 18:36:53;;;;;;;;;12.67;10.67;;;;;-145.45;100.00;57426.63;6247220;22;45296;-70
2023/04/30 18:39:20;;;;;;;;;7.67;7.67;;;;;-145.45;100.00;57426.63;6219054;22;46400;-70
2023/04/30 18:41:46;;;;;;;;;9.33;9.33;;;;;-145.45;100.00;57426.63;6218750;22;45262;-70